createdAt,value
2023-02-28T00:12:45.001Z,1.10
2023-02-28T00:27:47.010Z,1.10
2023-02-28T00:42:48.916Z,1.00
2023-02-28T00:57:50.843Z,1.10
2023-02-28T01:12:52.752Z,1.40
2023-02-28T01:27:55.901Z,1.30
2023-02-28T01:42:57.925Z,1.20
2023-02-28T01:58:03.178Z,1.20
2023-02-28T02:13:28.006Z,1.30
2023-02-28T02:28:53.628Z,1.20
2023-02-28T02:44:05.806Z,1.10
2023-02-28T02:59:12.567Z,1.20
2023-02-28T03:14:35.351Z,0.90
2023-02-28T03:29:57.497Z,0.90
2023-02-28T03:45:03.393Z,1.10
2023-02-28T04:00:16.987Z,1.30
2023-02-28T04:15:18.899Z,0.90
2023-02-28T04:30:20.909Z,0.80
2023-02-28T04:45:22.896Z,0.90
2023-02-28T05:00:25.067Z,1.10
2023-02-28T05:15:27.009Z,1.00
2023-02-28T05:30:28.920Z,0.90
2023-02-28T05:45:30.908Z,0.80
2023-02-28T06:00:32.879Z,1.00
2023-02-28T06:15:35.345Z,1.00
2023-02-28T06:30:38.916Z,0.90
2023-02-28T06:45:45.127Z,1.10
2023-02-28T07:00:47.430Z,1.80
2023-02-28T07:16:00.772Z,2.00
2023-02-28T07:31:09.867Z,2.20
2023-02-28T07:46:18.170Z,2.50
2023-02-28T08:01:20.572Z,4.30
2023-02-28T08:16:23.541Z,5.80
2023-02-28T08:31:25.637Z,6.70
2023-02-28T08:46:27.694Z,7.00
2023-02-28T09:01:31.174Z,5.60
2023-02-28T09:16:34.650Z,5.40
2023-02-28T09:31:36.914Z,6.90
2023-02-28T09:46:44.147Z,6.30
2023-02-28T10:02:11.703Z,5.80
2023-02-28T10:17:21.364Z,5.50
2023-02-28T10:32:33.494Z,5.50
2023-02-28T10:47:39.439Z,5.20
2023-02-28T11:02:44.072Z,5.00
2023-02-28T11:18:12.687Z,5.30
2023-02-28T11:33:41.910Z,5.40
2023-02-28T11:48:52.777Z,6.20
2023-02-28T12:04:09.662Z,6.80
2023-02-28T12:19:45.751Z,5.50
2023-02-28T12:34:53.253Z,5.10
2023-02-28T12:50:09.071Z,5.30
2023-02-28T13:05:52.294Z,5.50
2023-02-28T13:20:54.296Z,5.20
2023-02-28T13:36:02.452Z,5.60
2023-02-28T13:51:41.906Z,5.00
2023-02-28T14:06:57.700Z,4.70
2023-02-28T14:22:14.701Z,4.70
2023-02-28T14:37:40.742Z,4.70
2023-02-28T14:52:44.678Z,4.60
2023-02-28T15:07:48.512Z,4.40
2023-02-28T15:22:53.354Z,4.20
2023-02-28T15:37:58.174Z,4.30
2023-02-28T15:53:04.852Z,4.10
2023-02-28T16:08:16.267Z,4.10
2023-02-28T16:23:18.235Z,3.90
2023-02-28T16:38:20.780Z,3.50
2023-02-28T16:53:25.397Z,3.40
2023-02-28T17:08:29.830Z,3.00
2023-02-28T17:23:32.012Z,2.50
2023-02-28T17:38:33.996Z,2.40
2023-02-28T17:53:35.941Z,2.40
2023-02-28T18:08:38.007Z,2.30
2023-02-28T18:23:47.798Z,2.20
2023-02-28T18:38:50.702Z,1.80
2023-02-28T18:53:53.347Z,1.60
2023-02-28T19:08:56.591Z,1.60
2023-02-28T19:23:58.764Z,1.40
2023-02-28T19:39:00.731Z,1.20
2023-02-28T19:54:03.680Z,1.00
2023-02-28T20:09:05.700Z,0.90
2023-02-28T20:24:08.037Z,0.70
2023-02-28T20:39:10.195Z,0.90
2023-02-28T20:54:12.270Z,0.80
2023-02-28T21:09:15.608Z,0.40
2023-02-28T21:24:19.599Z,0.40
2023-02-28T21:39:25.898Z,0.40
2023-02-28T21:54:27.986Z,0.50
2023-02-28T22:09:30.184Z,0.20
2023-02-28T22:24:32.119Z,0.40
2023-02-28T22:39:34.051Z,0.00
2023-02-28T22:54:36.340Z,0.10
2023-02-28T23:09:38.325Z,-0.20
2023-02-28T23:24:40.341Z,-0.30
2023-02-28T23:39:42.252Z,-0.40
2023-02-28T23:54:44.272Z,-0.30
